sensor_id;sensor_type;location;lat;lon;timestamp;temperature;humidity
22950;DHT22;11641;51.018;4.474;2023-03-05T00:00:51;7.00;99.90
22950;DHT22;11641;51.018;4.474;2023-03-05T00:03:16;7.00;99.90
22950;DHT22;11641;51.018;4.474;2023-03-05T00:05:42;7.00;99.90
22950;DHT22;11641;51.018;4.474;2023-03-05T00:08:08;7.10;99.90
22950;DHT22;11641;51.018;4.474;2023-03-05T00:10:35;7.10;99.90
22950;DHT22;11641;51.018;4.474;2023-03-05T00:13:01;7.10;99.90
22950;DHT22;11641;51.018;4.474;2023-03-05T00:15:27;7.10;99.90
22950;DHT22;11641;51.018;4.474;2023-03-05T00:17:52;7.10;99.90
22950;DHT22;11641;51.018;4.474;2023-03-05T00:20:18;7.10;99.90
22950;DHT22;11641;51.018;4.474;2023-03-05T00:22:44;7.00;99.90
22950;DHT22;11641;51.018;4.474;2023-03-05T00:25:12;6.80;99.90
22950;DHT22;11641;51.018;4.474;2023-03-05T00:27:37;6.80;99.90
22950;DHT22;11641;51.018;4.474;2023-03-05T00:30:03;7.00;99.90
22950;DHT22;11641;51.018;4.474;2023-03-05T00:32:32;6.80;99.90
22950;DHT22;11641;51.018;4.474;2023-03-05T00:35:02;6.90;99.90
22950;DHT22;11641;51.018;4.474;2023-03-05T00:37:28;6.90;99.90
22950;DHT22;11641;51.018;4.474;2023-03-05T00:39:54;7.00;99.90
22950;DHT22;11641;51.018;4.474;2023-03-05T00:42:20;6.90;99.90
22950;DHT22;11641;51.018;4.474;2023-03-05T00:44:45;6.90;99.90
22950;DHT22;11641;51.018;4.474;2023-03-05T00:47:11;6.90;99.90
22950;DHT22;11641;51.018;4.474;2023-03-05T00:49:37;7.00;99.90
22950;DHT22;11641;51.018;4.474;2023-03-05T00:52:02;6.80;99.90
22950;DHT22;11641;51.018;4.474;2023-03-05T00:54:28;6.80;99.90
22950;DHT22;11641;51.018;4.474;2023-03-05T00:56:54;7.00;99.90
22950;DHT22;11641;51.018;4.474;2023-03-05T00:59:19;7.10;99.90
22950;DHT22;11641;51.018;4.474;2023-03-05T01:01:45;7.20;99.90
22950;DHT22;11641;51.018;4.474;2023-03-05T01:04:14;7.20;99.90
22950;DHT22;11641;51.018;4.474;2023-03-05T01:06:39;7.20;99.90
22950;DHT22;11641;51.018;4.474;2023-03-05T01:09:11;7.20;99.90
22950;DHT22;11641;51.018;4.474;2023-03-05T01:11:37;7.10;99.90
22950;DHT22;11641;51.018;4.474;2023-03-05T01:14:05;7.20;99.90
22950;DHT22;11641;51.018;4.474;2023-03-05T01:16:32;7.20;99.90
22950;DHT22;11641;51.018;4.474;2023-03-05T01:18:57;7.20;99.90
22950;DHT22;11641;51.018;4.474;2023-03-05T01:21:26;7.20;99.90
22950;DHT22;11641;51.018;4.474;2023-03-05T01:23:56;7.20;99.90
22950;DHT22;11641;51.018;4.474;2023-03-05T01:26:21;7.20;99.90
22950;DHT22;11641;51.018;4.474;2023-03-05T01:28:47;7.00;99.90
22950;DHT22;11641;51.018;4.474;2023-03-05T01:31:13;7.10;99.90
22950;DHT22;11641;51.018;4.474;2023-03-05T01:33:39;7.10;99.90
22950;DHT22;11641;51.018;4.474;2023-03-05T01:36:14;7.10;99.90
22950;DHT22;11641;51.018;4.474;2023-03-05T01:38:46;7.10;99.90
22950;DHT22;11641;51.018;4.474;2023-03-05T01:41:13;7.00;99.90
22950;DHT22;11641;51.018;4.474;2023-03-05T01:43:43;7.10;99.90
22950;DHT22;11641;51.018;4.474;2023-03-05T01:48:56;7.00;99.90
22950;DHT22;11641;51.018;4.474;2023-03-05T01:51:25;7.00;99.90
22950;DHT22;11641;51.018;4.474;2023-03-05T01:53:55;6.80;99.90
22950;DHT22;11641;51.018;4.474;2023-03-05T01:56:23;6.80;99.90
22950;DHT22;11641;51.018;4.474;2023-03-05T01:58:50;6.80;99.90
22950;DHT22;11641;51.018;4.474;2023-03-05T02:01:17;6.70;99.90
22950;DHT22;11641;51.018;4.474;2023-03-05T02:03:44;6.80;99.90
22950;DHT22;11641;51.018;4.474;2023-03-05T02:06:13;6.90;99.90
22950;DHT22;11641;51.018;4.474;2023-03-05T02:08:39;6.80;99.90
22950;DHT22;11641;51.018;4.474;2023-03-05T02:11:05;6.90;99.90
22950;DHT22;11641;51.018;4.474;2023-03-05T02:13:33;6.90;99.90
22950;DHT22;11641;51.018;4.474;2023-03-05T02:16:00;6.90;99.90
22950;DHT22;11641;51.018;4.474;2023-03-05T02:18:27;6.90;99.90
22950;DHT22;11641;51.018;4.474;2023-03-05T02:20:58;6.70;99.90
22950;DHT22;11641;51.018;4.474;2023-03-05T02:23:30;6.80;99.90
22950;DHT22;11641;51.018;4.474;2023-03-05T02:26:01;6.80;99.90
22950;DHT22;11641;51.018;4.474;2023-03-05T02:28:38;6.60;99.90
22950;DHT22;11641;51.018;4.474;2023-03-05T02:31:24;6.70;99.90
22950;DHT22;11641;51.018;4.474;2023-03-05T02:33:51;6.60;99.90
22950;DHT22;11641;51.018;4.474;2023-03-05T02:36:18;6.70;99.90
22950;DHT22;11641;51.018;4.474;2023-03-05T02:38:45;6.70;99.90
22950;DHT22;11641;51.018;4.474;2023-03-05T02:41:13;6.60;99.90
22950;DHT22;11641;51.018;4.474;2023-03-05T02:43:39;6.50;99.90
22950;DHT22;11641;51.018;4.474;2023-03-05T02:46:05;6.40;99.90
22950;DHT22;11641;51.018;4.474;2023-03-05T02:48:31;6.50;99.90
22950;DHT22;11641;51.018;4.474;2023-03-05T02:50:57;6.50;99.90
22950;DHT22;11641;51.018;4.474;2023-03-05T02:53:23;6.50;99.90
22950;DHT22;11641;51.018;4.474;2023-03-05T02:55:51;6.50;99.90
22950;DHT22;11641;51.018;4.474;2023-03-05T02:58:17;6.50;99.90
22950;DHT22;11641;51.018;4.474;2023-03-05T03:00:46;6.40;99.90
22950;DHT22;11641;51.018;4.474;2023-03-05T03:03:12;6.40;99.90
22950;DHT22;11641;51.018;4.474;2023-03-05T03:05:37;6.30;99.90
22950;DHT22;11641;51.018;4.474;2023-03-05T03:08:03;6.30;99.90
22950;DHT22;11641;51.018;4.474;2023-03-05T03:10:29;6.10;99.90
22950;DHT22;11641;51.018;4.474;2023-03-05T03:12:55;6.20;99.90
22950;DHT22;11641;51.018;4.474;2023-03-05T03:15:23;6.30;99.90
22950;DHT22;11641;51.018;4.474;2023-03-05T03:17:51;6.30;99.90
22950;DHT22;11641;51.018;4.474;2023-03-05T03:20:17;6.40;99.90
22950;DHT22;11641;51.018;4.474;2023-03-05T03:22:44;6.50;99.90
22950;DHT22;11641;51.018;4.474;2023-03-05T03:25:17;6.50;99.90
22950;DHT22;11641;51.018;4.474;2023-03-05T03:27:43;6.50;99.90
22950;DHT22;11641;51.018;4.474;2023-03-05T03:30:10;6.60;99.90
22950;DHT22;11641;51.018;4.474;2023-03-05T03:32:36;6.40;99.90
22950;DHT22;11641;51.018;4.474;2023-03-05T03:35:02;6.40;99.90
22950;DHT22;11641;51.018;4.474;2023-03-05T03:37:30;6.40;99.90
22950;DHT22;11641;51.018;4.474;2023-03-05T03:39:56;6.10;99.90
22950;DHT22;11641;51.018;4.474;2023-03-05T03:42:24;6.00;99.90
22950;DHT22;11641;51.018;4.474;2023-03-05T03:44:50;6.10;99.90
22950;DHT22;11641;51.018;4.474;2023-03-05T03:47:16;6.10;99.90
22950;DHT22;11641;51.018;4.474;2023-03-05T03:49:42;6.10;99.90
22950;DHT22;11641;51.018;4.474;2023-03-05T03:52:08;6.20;99.90
22950;DHT22;11641;51.018;4.474;2023-03-05T03:54:34;6.00;99.90
22950;DHT22;11641;51.018;4.474;2023-03-05T03:57:02;6.10;99.90
22950;DHT22;11641;51.018;4.474;2023-03-05T03:59:28;6.20;99.90
22950;DHT22;11641;51.018;4.474;2023-03-05T04:01:53;6.00;99.90
22950;DHT22;11641;51.018;4.474;2023-03-05T04:04:21;6.00;99.90
22950;DHT22;11641;51.018;4.474;2023-03-05T04:06:47;5.90;99.90
22950;DHT22;11641;51.018;4.474;2023-03-05T04:09:12;6.00;99.90
22950;DHT22;11641;51.018;4.474;2023-03-05T04:11:38;5.90;99.90
22950;DHT22;11641;51.018;4.474;2023-03-05T04:14:06;6.00;99.90
22950;DHT22;11641;51.018;4.474;2023-03-05T04:16:34;6.00;99.90
22950;DHT22;11641;51.018;4.474;2023-03-05T04:19:02;5.90;99.90
22950;DHT22;11641;51.018;4.474;2023-03-05T04:21:28;5.90;99.90
22950;DHT22;11641;51.018;4.474;2023-03-05T04:23:54;5.90;99.90
22950;DHT22;11641;51.018;4.474;2023-03-05T04:26:19;5.80;99.90
22950;DHT22;11641;51.018;4.474;2023-03-05T04:28:45;5.80;99.90
22950;DHT22;11641;51.018;4.474;2023-03-05T04:31:11;5.80;99.90
22950;DHT22;11641;51.018;4.474;2023-03-05T04:33:37;5.80;99.90
22950;DHT22;11641;51.018;4.474;2023-03-05T04:36:02;5.90;99.90
22950;DHT22;11641;51.018;4.474;2023-03-05T04:38:28;5.90;99.90
22950;DHT22;11641;51.018;4.474;2023-03-05T04:40:54;5.90;99.90
22950;DHT22;11641;51.018;4.474;2023-03-05T04:43:22;5.90;99.90
22950;DHT22;11641;51.018;4.474;2023-03-05T04:45:48;5.90;99.90
22950;DHT22;11641;51.018;4.474;2023-03-05T04:48:13;5.90;99.90
22950;DHT22;11641;51.018;4.474;2023-03-05T04:50:39;5.90;99.90
22950;DHT22;11641;51.018;4.474;2023-03-05T04:53:05;5.90;99.90
22950;DHT22;11641;51.018;4.474;2023-03-05T04:55:31;5.90;99.90
22950;DHT22;11641;51.018;4.474;2023-03-05T04:57:57;5.90;99.90
22950;DHT22;11641;51.018;4.474;2023-03-05T05:00:23;5.90;99.90
22950;DHT22;11641;51.018;4.474;2023-03-05T05:02:50;6.00;99.90
22950;DHT22;11641;51.018;4.474;2023-03-05T05:05:22;6.00;99.90
22950;DHT22;11641;51.018;4.474;2023-03-05T05:07:51;6.00;99.90
22950;DHT22;11641;51.018;4.474;2023-03-05T05:10:18;5.90;99.90
22950;DHT22;11641;51.018;4.474;2023-03-05T05:12:43;5.90;99.90
22950;DHT22;11641;51.018;4.474;2023-03-05T05:15:12;6.00;99.90
22950;DHT22;11641;51.018;4.474;2023-03-05T05:17:40;6.00;99.90
22950;DHT22;11641;51.018;4.474;2023-03-05T05:20:06;5.90;99.90
22950;DHT22;11641;51.018;4.474;2023-03-05T05:22:35;6.00;99.90
22950;DHT22;11641;51.018;4.474;2023-03-05T05:25:01;6.00;99.90
22950;DHT22;11641;51.018;4.474;2023-03-05T05:27:26;5.90;99.90
22950;DHT22;11641;51.018;4.474;2023-03-05T05:29:52;5.90;99.90
22950;DHT22;11641;51.018;4.474;2023-03-05T05:32:23;5.90;99.90
22950;DHT22;11641;51.018;4.474;2023-03-05T05:34:56;5.90;99.90
22950;DHT22;11641;51.018;4.474;2023-03-05T05:37:23;5.90;99.90
22950;DHT22;11641;51.018;4.474;2023-03-05T05:39:49;6.00;99.90
22950;DHT22;11641;51.018;4.474;2023-03-05T05:42:25;5.90;99.90
22950;DHT22;11641;51.018;4.474;2023-03-05T05:44:51;5.90;99.90
22950;DHT22;11641;51.018;4.474;2023-03-05T05:47:17;5.90;99.90
22950;DHT22;11641;51.018;4.474;2023-03-05T05:49:43;6.00;99.90
22950;DHT22;11641;51.018;4.474;2023-03-05T05:52:08;5.90;99.90
22950;DHT22;11641;51.018;4.474;2023-03-05T05:54:34;5.90;99.90
22950;DHT22;11641;51.018;4.474;2023-03-05T05:57:02;5.90;99.90
22950;DHT22;11641;51.018;4.474;2023-03-05T05:59:31;5.90;99.90
22950;DHT22;11641;51.018;4.474;2023-03-05T06:01:57;5.90;99.90
22950;DHT22;11641;51.018;4.474;2023-03-05T06:04:23;5.90;99.90
22950;DHT22;11641;51.018;4.474;2023-03-05T06:06:48;5.90;99.90
22950;DHT22;11641;51.018;4.474;2023-03-05T06:09:14;5.80;99.90
22950;DHT22;11641;51.018;4.474;2023-03-05T06:11:40;5.80;99.90
22950;DHT22;11641;51.018;4.474;2023-03-05T06:14:06;5.80;99.90
22950;DHT22;11641;51.018;4.474;2023-03-05T06:16:33;5.80;99.90
22950;DHT22;11641;51.018;4.474;2023-03-05T06:18:59;5.80;99.90
22950;DHT22;11641;51.018;4.474;2023-03-05T06:21:28;5.90;99.90
22950;DHT22;11641;51.018;4.474;2023-03-05T06:23:55;5.90;99.90
22950;DHT22;11641;51.018;4.474;2023-03-05T06:26:23;5.90;99.90
22950;DHT22;11641;51.018;4.474;2023-03-05T06:28:50;6.00;99.90
22950;DHT22;11641;51.018;4.474;2023-03-05T06:31:18;5.90;99.90
22950;DHT22;11641;51.018;4.474;2023-03-05T06:33:47;5.80;99.90
22950;DHT22;11641;51.018;4.474;2023-03-05T06:36:17;5.60;99.90
22950;DHT22;11641;51.018;4.474;2023-03-05T06:38:44;5.60;99.90
22950;DHT22;11641;51.018;4.474;2023-03-05T06:41:13;5.70;99.90
22950;DHT22;11641;51.018;4.474;2023-03-05T06:43:41;5.70;99.90
22950;DHT22;11641;51.018;4.474;2023-03-05T06:46:23;5.80;99.90
22950;DHT22;11641;51.018;4.474;2023-03-05T06:48:49;5.80;99.90
22950;DHT22;11641;51.018;4.474;2023-03-05T06:51:21;5.90;99.90
22950;DHT22;11641;51.018;4.474;2023-03-05T06:53:47;6.00;99.90
22950;DHT22;11641;51.018;4.474;2023-03-05T06:56:14;6.00;99.90
22950;DHT22;11641;51.018;4.474;2023-03-05T06:58:44;6.20;99.90
22950;DHT22;11641;51.018;4.474;2023-03-05T07:01:11;6.10;99.90
22950;DHT22;11641;51.018;4.474;2023-03-05T07:03:37;6.20;99.90
22950;DHT22;11641;51.018;4.474;2023-03-05T07:06:05;6.20;99.90
22950;DHT22;11641;51.018;4.474;2023-03-05T07:08:32;6.10;99.90
22950;DHT22;11641;51.018;4.474;2023-03-05T07:11:01;6.00;99.90
22950;DHT22;11641;51.018;4.474;2023-03-05T07:13:29;6.10;99.90
22950;DHT22;11641;51.018;4.474;2023-03-05T07:15:55;6.00;99.90
22950;DHT22;11641;51.018;4.474;2023-03-05T07:18:21;6.10;99.90
22950;DHT22;11641;51.018;4.474;2023-03-05T07:20:47;6.10;99.90
22950;DHT22;11641;51.018;4.474;2023-03-05T07:23:12;6.10;99.90
22950;DHT22;11641;51.018;4.474;2023-03-05T07:25:39;6.20;99.90
22950;DHT22;11641;51.018;4.474;2023-03-05T07:28:05;6.10;99.90
22950;DHT22;11641;51.018;4.474;2023-03-05T07:30:33;6.20;99.90
22950;DHT22;11641;51.018;4.474;2023-03-05T07:32:59;6.40;99.90
22950;DHT22;11641;51.018;4.474;2023-03-05T07:35:26;6.50;99.90
22950;DHT22;11641;51.018;4.474;2023-03-05T07:37:52;6.50;99.90
22950;DHT22;11641;51.018;4.474;2023-03-05T07:40:19;6.60;99.90
22950;DHT22;11641;51.018;4.474;2023-03-05T07:42:47;6.40;99.90
22950;DHT22;11641;51.018;4.474;2023-03-05T07:45:13;6.40;99.90
22950;DHT22;11641;51.018;4.474;2023-03-05T07:47:39;6.50;99.90
22950;DHT22;11641;51.018;4.474;2023-03-05T07:50:05;6.60;99.90
22950;DHT22;11641;51.018;4.474;2023-03-05T07:52:31;6.80;99.90
22950;DHT22;11641;51.018;4.474;2023-03-05T07:54:56;7.20;99.90
22950;DHT22;11641;51.018;4.474;2023-03-05T07:57:22;7.40;99.90
22950;DHT22;11641;51.018;4.474;2023-03-05T07:59:48;7.40;99.90
22950;DHT22;11641;51.018;4.474;2023-03-05T08:02:13;7.40;99.90
22950;DHT22;11641;51.018;4.474;2023-03-05T08:04:43;7.40;99.90
22950;DHT22;11641;51.018;4.474;2023-03-05T08:07:12;7.60;99.90
22950;DHT22;11641;51.018;4.474;2023-03-05T08:09:38;7.50;99.90
22950;DHT22;11641;51.018;4.474;2023-03-05T08:12:04;7.50;99.90
22950;DHT22;11641;51.018;4.474;2023-03-05T08:14:30;7.60;99.90
22950;DHT22;11641;51.018;4.474;2023-03-05T08:16:57;7.60;99.90
22950;DHT22;11641;51.018;4.474;2023-03-05T08:19:22;7.40;99.90
22950;DHT22;11641;51.018;4.474;2023-03-05T08:21:50;7.50;99.90
22950;DHT22;11641;51.018;4.474;2023-03-05T08:24:16;7.40;99.90
22950;DHT22;11641;51.018;4.474;2023-03-05T08:26:42;7.10;99.90
22950;DHT22;11641;51.018;4.474;2023-03-05T08:29:09;7.10;99.90
22950;DHT22;11641;51.018;4.474;2023-03-05T08:31:36;6.70;99.90
22950;DHT22;11641;51.018;4.474;2023-03-05T08:34:03;6.70;99.90
22950;DHT22;11641;51.018;4.474;2023-03-05T08:36:30;6.70;99.90
22950;DHT22;11641;51.018;4.474;2023-03-05T08:38:56;6.60;99.90
22950;DHT22;11641;51.018;4.474;2023-03-05T08:41:24;6.50;99.90
22950;DHT22;11641;51.018;4.474;2023-03-05T08:43:52;6.80;99.90
22950;DHT22;11641;51.018;4.474;2023-03-05T08:46:18;6.30;99.90
22950;DHT22;11641;51.018;4.474;2023-03-05T08:48:44;6.00;99.90
22950;DHT22;11641;51.018;4.474;2023-03-05T08:51:11;6.00;99.90
22950;DHT22;11641;51.018;4.474;2023-03-05T08:53:37;6.10;99.90
22950;DHT22;11641;51.018;4.474;2023-03-05T08:56:03;5.90;99.90
22950;DHT22;11641;51.018;4.474;2023-03-05T08:58:29;5.70;99.90
22950;DHT22;11641;51.018;4.474;2023-03-05T09:00:55;5.40;99.90
22950;DHT22;11641;51.018;4.474;2023-03-05T09:03:21;5.50;99.90
22950;DHT22;11641;51.018;4.474;2023-03-05T09:05:49;5.60;99.90
22950;DHT22;11641;51.018;4.474;2023-03-05T09:08:16;5.60;99.90
22950;DHT22;11641;51.018;4.474;2023-03-05T09:10:42;5.80;99.90
22950;DHT22;11641;51.018;4.474;2023-03-05T09:13:08;6.20;99.90
22950;DHT22;11641;51.018;4.474;2023-03-05T09:15:34;6.50;99.90
22950;DHT22;11641;51.018;4.474;2023-03-05T09:18:02;6.60;99.90
22950;DHT22;11641;51.018;4.474;2023-03-05T09:20:28;6.80;99.90
22950;DHT22;11641;51.018;4.474;2023-03-05T09:22:54;7.20;99.90
22950;DHT22;11641;51.018;4.474;2023-03-05T09:25:19;7.50;99.90
22950;DHT22;11641;51.018;4.474;2023-03-05T09:27:45;7.70;99.90
22950;DHT22;11641;51.018;4.474;2023-03-05T09:30:12;7.80;99.90
22950;DHT22;11641;51.018;4.474;2023-03-05T09:32:38;8.20;99.90
22950;DHT22;11641;51.018;4.474;2023-03-05T09:35:04;8.90;99.90
22950;DHT22;11641;51.018;4.474;2023-03-05T09:37:30;9.00;99.90
22950;DHT22;11641;51.018;4.474;2023-03-05T09:39:57;8.90;99.90
22950;DHT22;11641;51.018;4.474;2023-03-05T09:52:51;9.20;99.90
22950;DHT22;11641;51.018;4.474;2023-03-05T09:57:56;9.20;99.90
22950;DHT22;11641;51.018;4.474;2023-03-05T10:00:40;9.10;99.90
22950;DHT22;11641;51.018;4.474;2023-03-05T10:03:33;9.20;99.90
22950;DHT22;11641;51.018;4.474;2023-03-05T10:06:23;9.00;99.90
22950;DHT22;11641;51.018;4.474;2023-03-05T10:09:02;9.10;99.90
22950;DHT22;11641;51.018;4.474;2023-03-05T10:11:55;9.20;99.90
22950;DHT22;11641;51.018;4.474;2023-03-05T10:14:37;9.10;99.90
22950;DHT22;11641;51.018;4.474;2023-03-05T10:22:36;9.50;99.90
22950;DHT22;11641;51.018;4.474;2023-03-05T10:29:04;9.90;99.90
22950;DHT22;11641;51.018;4.474;2023-03-05T10:40:23;10.90;99.90
22950;DHT22;11641;51.018;4.474;2023-03-05T10:45:33;10.50;99.90
22950;DHT22;11641;51.018;4.474;2023-03-05T10:48:37;10.30;99.90
22950;DHT22;11641;51.018;4.474;2023-03-05T10:51:21;10.30;99.90
22950;DHT22;11641;51.018;4.474;2023-03-05T10:53:57;10.70;99.90
22950;DHT22;11641;51.018;4.474;2023-03-05T10:56:25;11.10;99.90
22950;DHT22;11641;51.018;4.474;2023-03-05T10:58:54;11.30;99.90
22950;DHT22;11641;51.018;4.474;2023-03-05T11:01:29;12.10;99.90
22950;DHT22;11641;51.018;4.474;2023-03-05T11:04:26;13.00;99.90
22950;DHT22;11641;51.018;4.474;2023-03-05T11:06:52;14.00;99.90
22950;DHT22;11641;51.018;4.474;2023-03-05T11:12:20;15.00;99.90
22950;DHT22;11641;51.018;4.474;2023-03-05T11:17:39;12.80;99.90
22950;DHT22;11641;51.018;4.474;2023-03-05T11:28:20;10.40;99.90
22950;DHT22;11641;51.018;4.474;2023-03-05T11:41:47;10.60;99.90
22950;DHT22;11641;51.018;4.474;2023-03-05T11:44:16;10.90;99.90
22950;DHT22;11641;51.018;4.474;2023-03-05T11:46:47;11.00;99.90
22950;DHT22;11641;51.018;4.474;2023-03-05T11:49:20;11.80;99.90
22950;DHT22;11641;51.018;4.474;2023-03-05T11:57:23;12.70;99.90
22950;DHT22;11641;51.018;4.474;2023-03-05T11:59:49;13.20;99.90
22950;DHT22;11641;51.018;4.474;2023-03-05T12:02:22;13.10;99.90
22950;DHT22;11641;51.018;4.474;2023-03-05T12:04:48;12.20;99.90
22950;DHT22;11641;51.018;4.474;2023-03-05T12:07:23;11.60;99.90
22950;DHT22;11641;51.018;4.474;2023-03-05T12:09:54;11.50;99.90
22950;DHT22;11641;51.018;4.474;2023-03-05T12:12:40;11.60;99.90
22950;DHT22;11641;51.018;4.474;2023-03-05T12:17:59;11.50;99.90
22950;DHT22;11641;51.018;4.474;2023-03-05T12:23:14;10.90;99.90
22950;DHT22;11641;51.018;4.474;2023-03-05T12:25:45;11.10;99.90
22950;DHT22;11641;51.018;4.474;2023-03-05T12:28:16;11.30;99.90
22950;DHT22;11641;51.018;4.474;2023-03-05T12:31:28;10.70;99.90
22950;DHT22;11641;51.018;4.474;2023-03-05T12:33:58;10.60;99.90
22950;DHT22;11641;51.018;4.474;2023-03-05T12:36:34;10.50;99.90
22950;DHT22;11641;51.018;4.474;2023-03-05T12:39:01;10.70;99.90
22950;DHT22;11641;51.018;4.474;2023-03-05T12:41:46;10.30;99.90
22950;DHT22;11641;51.018;4.474;2023-03-05T12:44:16;10.00;99.90
22950;DHT22;11641;51.018;4.474;2023-03-05T12:49:38;10.10;99.90
22950;DHT22;11641;51.018;4.474;2023-03-05T12:52:16;10.30;99.90
22950;DHT22;11641;51.018;4.474;2023-03-05T12:57:35;9.60;99.90
22950;DHT22;11641;51.018;4.474;2023-03-05T13:00:07;9.40;99.90
22950;DHT22;11641;51.018;4.474;2023-03-05T13:02:36;9.00;99.90
22950;DHT22;11641;51.018;4.474;2023-03-05T13:05:26;8.80;99.90
22950;DHT22;11641;51.018;4.474;2023-03-05T13:08:09;8.90;99.90
22950;DHT22;11641;51.018;4.474;2023-03-05T13:10:35;8.90;99.90
22950;DHT22;11641;51.018;4.474;2023-03-05T13:13:01;8.40;99.90
22950;DHT22;11641;51.018;4.474;2023-03-05T13:15:27;8.00;99.90
22950;DHT22;11641;51.018;4.474;2023-03-05T13:17:58;7.60;99.90
22950;DHT22;11641;51.018;4.474;2023-03-05T13:20:39;7.30;99.90
22950;DHT22;11641;51.018;4.474;2023-03-05T13:25:41;6.70;99.90
22950;DHT22;11641;51.018;4.474;2023-03-05T13:28:12;6.70;99.90
22950;DHT22;11641;51.018;4.474;2023-03-05T13:30:41;6.60;99.90
22950;DHT22;11641;51.018;4.474;2023-03-05T13:33:15;6.50;99.90
22950;DHT22;11641;51.018;4.474;2023-03-05T13:35:44;6.50;99.90
22950;DHT22;11641;51.018;4.474;2023-03-05T13:41:07;6.90;99.90
22950;DHT22;11641;51.018;4.474;2023-03-05T13:43:48;7.30;99.90
22950;DHT22;11641;51.018;4.474;2023-03-05T13:46:26;7.80;99.90
22950;DHT22;11641;51.018;4.474;2023-03-05T13:48:53;8.10;99.90
22950;DHT22;11641;51.018;4.474;2023-03-05T13:51:19;8.30;99.90
22950;DHT22;11641;51.018;4.474;2023-03-05T13:53:45;8.40;99.90
22950;DHT22;11641;51.018;4.474;2023-03-05T13:56:18;8.50;99.90
22950;DHT22;11641;51.018;4.474;2023-03-05T13:58:55;8.50;99.90
22950;DHT22;11641;51.018;4.474;2023-03-05T14:12:05;7.80;99.90
22950;DHT22;11641;51.018;4.474;2023-03-05T14:14:36;7.60;99.90
22950;DHT22;11641;51.018;4.474;2023-03-05T14:22:49;7.50;99.90
22950;DHT22;11641;51.018;4.474;2023-03-05T14:25:37;7.60;99.90
22950;DHT22;11641;51.018;4.474;2023-03-05T14:30:49;7.80;99.90
22950;DHT22;11641;51.018;4.474;2023-03-05T14:33:36;7.90;99.90
22950;DHT22;11641;51.018;4.474;2023-03-05T14:36:03;8.00;99.90
22950;DHT22;11641;51.018;4.474;2023-03-05T14:38:30;7.80;99.90
22950;DHT22;11641;51.018;4.474;2023-03-05T14:41:17;7.80;99.90
22950;DHT22;11641;51.018;4.474;2023-03-05T14:43:45;7.80;99.90
22950;DHT22;11641;51.018;4.474;2023-03-05T14:46:11;7.70;99.90
22950;DHT22;11641;51.018;4.474;2023-03-05T14:48:38;7.90;99.90
22950;DHT22;11641;51.018;4.474;2023-03-05T14:51:06;8.00;99.90
22950;DHT22;11641;51.018;4.474;2023-03-05T14:53:42;8.20;99.90
22950;DHT22;11641;51.018;4.474;2023-03-05T14:56:25;8.40;99.90
22950;DHT22;11641;51.018;4.474;2023-03-05T14:58:52;8.50;99.90
22950;DHT22;11641;51.018;4.474;2023-03-05T15:01:20;8.60;99.90
22950;DHT22;11641;51.018;4.474;2023-03-05T15:03:46;8.60;99.90
22950;DHT22;11641;51.018;4.474;2023-03-05T15:06:31;8.50;99.90
22950;DHT22;11641;51.018;4.474;2023-03-05T15:08:58;8.20;99.90
22950;DHT22;11641;51.018;4.474;2023-03-05T15:11:24;8.00;99.90
22950;DHT22;11641;51.018;4.474;2023-03-05T15:13:50;7.70;99.90
22950;DHT22;11641;51.018;4.474;2023-03-05T15:16:17;7.60;99.90
22950;DHT22;11641;51.018;4.474;2023-03-05T15:18:43;7.80;99.90
22950;DHT22;11641;51.018;4.474;2023-03-05T15:21:09;7.70;99.90
22950;DHT22;11641;51.018;4.474;2023-03-05T15:23:35;7.60;99.90
22950;DHT22;11641;51.018;4.474;2023-03-05T15:26:04;7.70;99.90
22950;DHT22;11641;51.018;4.474;2023-03-05T15:28:36;7.60;99.90
22950;DHT22;11641;51.018;4.474;2023-03-05T15:31:03;7.60;99.90
22950;DHT22;11641;51.018;4.474;2023-03-05T15:33:30;7.70;99.90
22950;DHT22;11641;51.018;4.474;2023-03-05T15:35:56;7.40;99.90
22950;DHT22;11641;51.018;4.474;2023-03-05T15:38:22;7.30;99.90
22950;DHT22;11641;51.018;4.474;2023-03-05T15:40:49;7.50;99.90
22950;DHT22;11641;51.018;4.474;2023-03-05T15:43:16;7.50;99.90
22950;DHT22;11641;51.018;4.474;2023-03-05T15:45:43;7.20;99.90
22950;DHT22;11641;51.018;4.474;2023-03-05T15:48:09;7.40;99.90
22950;DHT22;11641;51.018;4.474;2023-03-05T15:50:34;7.20;99.90
22950;DHT22;11641;51.018;4.474;2023-03-05T15:53:02;7.30;99.90
22950;DHT22;11641;51.018;4.474;2023-03-05T15:55:28;7.30;99.90
22950;DHT22;11641;51.018;4.474;2023-03-05T15:57:54;7.10;99.90
22950;DHT22;11641;51.018;4.474;2023-03-05T16:00:25;6.90;99.90
22950;DHT22;11641;51.018;4.474;2023-03-05T16:02:53;6.80;99.90
22950;DHT22;11641;51.018;4.474;2023-03-05T16:05:19;6.90;99.90
22950;DHT22;11641;51.018;4.474;2023-03-05T16:07:48;6.90;99.90
22950;DHT22;11641;51.018;4.474;2023-03-05T16:10:17;6.90;99.90
22950;DHT22;11641;51.018;4.474;2023-03-05T16:12:47;6.70;99.90
22950;DHT22;11641;51.018;4.474;2023-03-05T16:15:20;6.70;99.90
22950;DHT22;11641;51.018;4.474;2023-03-05T16:17:50;6.80;99.90
22950;DHT22;11641;51.018;4.474;2023-03-05T16:20:17;6.80;99.90
22950;DHT22;11641;51.018;4.474;2023-03-05T16:22:45;6.90;99.90
22950;DHT22;11641;51.018;4.474;2023-03-05T16:25:14;6.90;99.90
22950;DHT22;11641;51.018;4.474;2023-03-05T16:27:44;7.00;99.90
22950;DHT22;11641;51.018;4.474;2023-03-05T16:30:16;7.00;99.90
22950;DHT22;11641;51.018;4.474;2023-03-05T16:32:43;6.80;99.90
22950;DHT22;11641;51.018;4.474;2023-03-05T16:35:18;6.60;99.90
22950;DHT22;11641;51.018;4.474;2023-03-05T16:37:47;6.70;99.90
22950;DHT22;11641;51.018;4.474;2023-03-05T16:40:16;6.80;99.90
22950;DHT22;11641;51.018;4.474;2023-03-05T16:42:42;6.70;99.90
22950;DHT22;11641;51.018;4.474;2023-03-05T16:45:12;6.60;99.90
22950;DHT22;11641;51.018;4.474;2023-03-05T16:47:39;6.60;99.90
22950;DHT22;11641;51.018;4.474;2023-03-05T16:50:09;6.80;99.90
22950;DHT22;11641;51.018;4.474;2023-03-05T16:52:38;6.70;99.90
22950;DHT22;11641;51.018;4.474;2023-03-05T16:55:21;6.90;99.90
22950;DHT22;11641;51.018;4.474;2023-03-05T16:57:47;6.90;99.90
22950;DHT22;11641;51.018;4.474;2023-03-05T17:00:16;6.90;99.90
22950;DHT22;11641;51.018;4.474;2023-03-05T17:02:43;7.10;99.90
22950;DHT22;11641;51.018;4.474;2023-03-05T17:05:13;7.00;99.90
22950;DHT22;11641;51.018;4.474;2023-03-05T17:07:39;7.10;99.90
22950;DHT22;11641;51.018;4.474;2023-03-05T17:10:06;7.10;99.90
22950;DHT22;11641;51.018;4.474;2023-03-05T17:12:33;7.00;99.90
22950;DHT22;11641;51.018;4.474;2023-03-05T17:14:59;6.90;99.90
22950;DHT22;11641;51.018;4.474;2023-03-05T17:17:40;6.80;99.90
22950;DHT22;11641;51.018;4.474;2023-03-05T17:20:13;6.80;99.90
22950;DHT22;11641;51.018;4.474;2023-03-05T17:22:39;6.80;99.90
22950;DHT22;11641;51.018;4.474;2023-03-05T17:25:05;6.80;99.90
22950;DHT22;11641;51.018;4.474;2023-03-05T17:27:39;6.70;99.90
22950;DHT22;11641;51.018;4.474;2023-03-05T17:30:06;6.70;99.90
22950;DHT22;11641;51.018;4.474;2023-03-05T17:32:35;6.60;99.90
22950;DHT22;11641;51.018;4.474;2023-03-05T17:35:05;6.60;99.90
22950;DHT22;11641;51.018;4.474;2023-03-05T17:37:35;6.50;99.90